• Join FlightAware (Why Join?)
  • Login
  • US Flag 
08:48PM EDT


 

Airport Tracker/Info


-or-


 

Live Flight TrackerFlight Track Log ✈ SWA1688 ✈ 07-May-2013 ✈ KMCO - KALB

Flight Track Log - Related Links

Times and Time Zones

All times are in EDT time to prevent confusion due to time zone crossing. See the SWA1688 flight status page for this flight to view local times or setup timezone preferences in your user account.

Time Position Orientation Groundspeed Altitude Reporting Facility
EDT Latitude Longitude Course Direction KTS MPH feet Rate Location/Type
09:27PM 28.4167 -81.3000 150° Southeast 146 168 800  Level Orlando TRACON
09:28PM 28.3667 -81.2667 150° Southeast 220 253 3,000 3,180 Climbing Orlando TRACON
09:29PM 28.3500 -81.2167 111° Southeast 241 277 6,900 3,360 Climbing Orlando TRACON
09:32PM 28.5003 -81.2272 356° North 273 314 13,600 3,300 Climbing Jacksonville Center
09:33PM 28.5964 -81.2539 346° North 313 360 17,400 3,600 Climbing Jacksonville Center
09:34PM 28.6969 -81.2831 346° North 348 400 20,900 3,480 Climbing Jacksonville Center
09:35PM 28.7997 -81.3100 347° North 364 419 24,400 2,520 Climbing Jacksonville Center
09:36PM 28.9064 -81.3392 347° North 382 440 26,000 1,980 Climbing Jacksonville Center
09:37PM 29.0175 -81.3658 348° North 393 452 28,400 2,220 Climbing Jacksonville Center
09:38PM 29.1344 -81.3925 349° North 403 464 30,500 1,860 Climbing Jacksonville Center
09:39PM 29.2558 -81.4072 354° North 425 489 32,200 2,100 Climbing Jacksonville Center
09:40PM 29.3833 -81.4197 355° North 444 511 34,700 2,280 Climbing Jacksonville Center
09:41PM 29.5067 -81.4322 355° North 449 517 36,800 1,800 Climbing Jacksonville Center
09:42PM 29.6342 -81.4447 355° North 449 517 38,400 1,380 Climbing Jacksonville Center
09:43PM 29.7594 -81.4547 356° North 444 511 39,600 1,080 Climbing Jacksonville Center
09:44PM 29.8869 -81.4672 355° North 444 511 40,600 660 Climbing Jacksonville Center
09:45PM 30.0122 -81.4772 356° North 444 511 41,000 180 Climbing Jacksonville Center
09:46PM 30.1544 -81.4944 354° North 452 520 41,000  Level Jacksonville Center
09:47PM 30.2797 -81.5047 356° North 452 520 41,000  Level Jacksonville Center
09:48PM 30.4092 -81.5028 North 457 526 41,000  Level Jacksonville Center
09:49PM 30.5386 -81.4961 North 457 526 41,000  Level Jacksonville Center
09:50PM 30.6658 -81.4844 North 457 526 41,000  Level Jacksonville Center
09:51PM 30.7931 -81.4753 North 457 526 41,000  Level Jacksonville Center
09:52PM 30.9203 -81.4661 North 463 533 41,000  Level Jacksonville Center
09:53PM 31.0475 -81.4547 North 463 533 41,000  Level Jacksonville Center
09:54PM 31.1792 -81.4428 North 454 522 41,000  Level Jacksonville Center
09:55PM 31.3103 -81.4264 North 466 536 41,000  Level Jacksonville Center
09:56PM 31.4353 -81.3878 15° North 467 537 41,000  Level Jacksonville Center
09:57PM 31.5539 -81.3567 13° North 475 547 41,000  Level Jacksonville Center
09:58PM 31.6953 -81.3200 12° North 470 541 41,000  Level Jacksonville Center
09:59PM 31.8222 -81.2861 13° North 470 541 41,000  Level Jacksonville Center
10:00PM 31.9431 -81.2547 12° North 475 547 41,000  Level Jacksonville Center
10:01PM 32.0678 -81.2206 13° North 469 540 41,000  Level Jacksonville Center
10:02PM 32.1925 -81.1692 19° North 469 540 41,000  Level Jacksonville Center
10:03PM 32.3039 -81.0861 32° Northeast 469 540 41,000  Level Jacksonville Center
10:04PM 32.4175 -81.0050 31° Northeast 469 540 41,000  Level Jacksonville Center
10:05PM 32.5311 -80.9239 31° Northeast 469 540 41,000  Level Jacksonville Center
10:06PM 32.6447 -80.8400 32° Northeast 469 540 41,000  Level Jacksonville Center
10:07PM 32.7561 -80.7583 32° Northeast 469 540 41,000  Level Jacksonville Center
10:08PM 32.8694 -80.6764 31° Northeast 469 540 41,000  Level Jacksonville Center
10:09PM 32.9806 -80.5944 32° Northeast 469 540 41,000  Level Jacksonville Center
10:10PM 33.0981 -80.5122 30° Northeast 469 540 41,000  Level Jacksonville Center
10:11PM 33.2217 -80.4194 32° Northeast 469 540 41,000  Level Jacksonville Center
10:12PM 33.3347 -80.3344 32° Northeast 469 540 41,000  Level Jacksonville Center
10:13PM 33.4497 -80.2489 32° Northeast 469 540 41,000  Level Jacksonville Center
10:14PM 33.5628 -80.1633 32° Northeast 469 540 41,000  Level Jacksonville Center
10:15PM 33.6736 -80.0825 31° Northeast 469 540 41,000  Level Jacksonville Center
10:16PM 33.7864 -79.9964 32° Northeast 469 540 41,000  Level Jacksonville Center
10:17PM 33.9014 -79.9100 32° Northeast 469 540 41,000  Level Jacksonville Center
10:18PM 34.0161 -79.8258 31° Northeast 469 540 41,000  Level Jacksonville Center
10:20PM 34.2894 -79.6286 31° Northeast 496 571 41,000  Level Washington Center
10:21PM 34.4147 -79.5644 23° Northeast 496 571 41,000  Level Washington Center
10:22PM 34.5356 -79.4997 24° Northeast 483 556 41,000  Level Washington Center
10:23PM 34.6611 -79.4325 24° Northeast 483 556 41,000  Level Washington Center
10:24PM 34.7819 -79.3697 23° Northeast 478 550 41,000  Level Washington Center
10:25PM 34.9156 -79.3000 23° Northeast 472 543 41,000  Level Washington Center
10:26PM 35.0364 -79.2347 24° Northeast 466 536 41,000  Level Washington Center
10:27PM 35.1594 -79.1717 23° Northeast 466 536 41,000  Level Washington Center
10:28PM 35.2803 -79.1083 23° Northeast 466 536 41,000  Level Washington Center
10:29PM 35.4031 -79.0422 24° Northeast 472 543 41,000  Level Washington Center
10:30PM 35.5261 -78.9761 24° Northeast 467 537 41,000  Level Washington Center
10:31PM 35.6511 -78.9100 23° Northeast 467 537 41,000  Level Washington Center
10:32PM 35.7739 -78.8433 24° Northeast 472 543 41,000  Level Washington Center
10:33PM 35.8928 -78.7686 27° Northeast 472 543 41,000  Level Washington Center
10:34PM 36.0017 -78.6756 35° Northeast 472 543 41,000  Level Washington Center
10:35PM 36.1106 -78.5794 35° Northeast 472 543 41,000  Level Washington Center
10:36PM 36.2194 -78.4806 36° Northeast 477 549 41,000  Level Washington Center
10:37PM 36.3281 -78.3867 35° Northeast 482 555 41,000  Level Washington Center
10:38PM 36.4386 -78.2875 36° Northeast 482 555 41,000  Level Washington Center
10:39PM 36.5450 -78.1953 35° Northeast 477 549 41,000  Level Washington Center
10:40PM 36.6472 -78.0978 37° Northeast 472 543 41,000  Level Washington Center
10:41PM 36.7558 -78.0003 36° Northeast 472 543 41,000  Level Washington Center
10:42PM 36.8597 -77.9075 36° Northeast 466 536 41,000  Level Washington Center
10:43PM 36.9658 -77.8092 37° Northeast 466 536 41,000  Level Washington Center
10:44PM 37.0742 -77.7133 35° Northeast 466 536 41,000  Level Washington Center
10:45PM 37.1800 -77.6172 36° Northeast 466 536 41,000  Level Washington Center
10:46PM 37.2839 -77.5208 36° Northeast 466 536 41,000  Level Washington Center
10:47PM 37.3917 -77.4269 35° Northeast 466 536 41,000  Level Washington Center
10:48PM 37.4975 -77.3272 37° Northeast 466 536 41,000  Level Washington Center
10:49PM 37.5928 -77.2167 43° Northeast 466 536 41,000  Level Washington Center
10:50PM 37.6903 -77.1033 43° Northeast 466 536 41,000  Level Washington Center
10:51PM 37.7856 -76.9897 43° Northeast 466 536 41,000  Level Washington Center
10:52PM 37.8847 -76.8758 42° Northeast 472 543 41,000  Level Washington Center
10:53PM 37.9819 -76.7614 43° Northeast 477 549 41,000  Level Washington Center
10:54PM 38.0789 -76.6469 43° Northeast 477 549 41,000  Level Washington Center
10:55PM 38.1758 -76.5294 44° Northeast 477 549 41,000  Level Washington Center
10:56PM 38.2747 -76.4142 42° Northeast 477 549 41,000  Level Washington Center
10:57PM 38.3692 -76.3253 36° Northeast 470 541 41,000  Level Washington Center
10:58PM 38.4739 -76.2256 37° Northeast 470 541 41,000  Level Washington Center
10:59PM 38.5953 -76.1175 35° Northeast 475 547 41,000  Level Washington Center
11:00PM 38.7019 -76.0172 36° Northeast 475 547 41,000  Level Washington Center
11:01PM 38.8067 -75.9192 36° Northeast 469 540 41,000  Level Washington Center
11:02PM 38.9131 -75.8211 36° Northeast 469 540 41,000  Level Washington Center
11:03PM 39.0153 -75.7144 39° Northeast 469 540 41,000  Level Washington Center
11:04PM 39.1197 -75.6131 37° Northeast 469 540 41,000 -840 Level Washington Center
11:05PM 39.2217 -75.5058 39° Northeast 469 540 39,400 -1,380 Descending Washington Center
11:06PM 39.3217 -75.4039 38° Northeast 464 534 38,300 -1,020 Descending Washington Center
11:07PM 39.4256 -75.2986 38° Northeast 464 534 37,400 -960 Descending Washington Center
11:08PM 39.5253 -75.1961 38° Northeast 464 534 36,500 -840 Descending Washington Center
11:10PM 39.7125 -75.0022 39° Northeast 443 510 35,000 -540 Descending New York Center
11:11PM 39.8078 -74.9028 39° Northeast 438 504 35,000  Level New York Center
11:12PM 39.8961 -74.8158 37° Northeast 438 504 35,000  Level New York Center
11:13PM 39.9936 -74.7131 39° Northeast 443 510 35,000  Level New York Center
11:14PM 40.0864 -74.6153 39° Northeast 443 510 35,000  Level New York Center
11:15PM 40.1811 -74.5175 38° Northeast 436 502 35,000  Level New York Center
11:16PM 40.2847 -74.4033 40° Northeast 441 507 35,000  Level New York Center
11:17PM 40.3753 -74.3044 40° Northeast 436 502 35,000 -1,020 Level New York Center
11:18PM 40.4700 -74.2056 38° Northeast 436 502 33,000 -2,400 Descending New York Center
11:19PM 40.5625 -74.1064 39° Northeast 436 502 30,200 -2,700 Descending New York Center
11:20PM 40.6547 -74.0097 38° Northeast 430 495 27,600 -2,280 Descending New York Center
11:22PM 40.7994 -73.8519 40° Northeast 406 467 24,000 -1,320 Descending Boston Center
11:23PM 40.9064 -73.7994 20° North 406 467 24,000  Level Boston Center
11:24PM 41.0250 -73.8019 359° North 395 455 24,000  Level Boston Center
11:25PM 41.1397 -73.8044 359° North 405 466 24,000  Level Boston Center
11:26PM 41.2542 -73.8042 360° North 410 472 24,000  Level Boston Center
11:27PM 41.3731 -73.8011 North 410 472 24,000  Level Boston Center
11:28PM 41.4878 -73.8036 359° North 410 472 24,000  Level Boston Center
11:29PM 41.6044 -73.8003 North 415 478 24,000 -600 Level Boston Center
11:30PM 41.7169 -73.8028 359° North 415 478 22,900 -1,860 Descending Boston Center
11:31PM 41.8400 -73.8056 359° North 409 471 20,300 -2,400 Descending Boston Center
11:32PM 41.9358 -73.8047 360° North 387 445 18,200 -2,400 Descending Boston Center
11:33PM 42.0294 -73.8039 360° North 377 434 16,100 -2,580 Descending Boston Center
11:34PM 42.1358 -73.8008 North 377 434 13,700 -2,400 Descending Boston Center
11:35PM 42.2358 -73.8169 353° North 363 418 11,300 -1,860 Descending Boston Center
11:36PM 42.3314 -73.8414 349° North 326 375 10,000 -1,440 Descending Boston Center
11:37PM 42.4144 -73.8658 348° North 299 344 8,400 -1,620 Descending Boston Center
11:37PM 42.4869 -73.8900 346° North 296 341 6,900 -1,740 Descending Boston Center
11:38PM 42.5100 -73.8906 359° North 297 342 6,400 -1,440 Descending Boston Center
11:39PM 42.5742 -73.9119 346° North 289 333 5,300 -1,020 Descending Boston Center
11:40PM 42.6450 -73.9247 352° North 254 292 4,600 -780 Descending Boston Center
11:41PM 42.7094 -73.9375 352° North 224 258 3,800 -1,080 Descending Boston Center
11:42PM 42.7742 -73.9308 North 212 244 2,500 -1,020 Descending Boston Center
11:43PM 42.8081 -73.8892 42° Northeast 167 192 1,800 -360 Descending Boston Center
11:44PM 42.8211 -73.8356 72° East 145 167 1,800 -420 Level Boston Center
11:45PM 42.7944 -73.8094 144° Southeast 108 124 1,000 -720 Descending Boston Center
11:46PM 42.7611 -73.8089 179° South 117 135 400 -600 Descending Boston Center